Time;durP1;ratioP1;P1;durP2;ratioP2;P2;SDS_P1;SDS_P2;PMS_P1;PMS_P2;Temp;Humidity;BMP_temperature;BMP_pressure;BME280_temperature;BME280_humidity;BME280_pressure;Samples;Min_cycle;Max_cycle;Signal;HPM_P1;HPM_P2
2023/02/04 00:01:50;;;;;;;;;;;;;;;;;;4982716;28;19977;-72
2023/02/04 00:04:16;;;;;;;;;;;;;;;;;;4981391;28;19913;-71
2023/02/04 00:06:42;;;;;;;;;;;;;;;;;;4966511;28;19935;-71
2023/02/04 00:09:08;;;;;;;;;;;;;;;;;;4964224;28;20664;-73
2023/02/04 00:11:34;;;;;;;;;;;;;;;;;;4983383;28;19913;-72
2023/02/04 00:14:00;;;;;;;;;;;;;;;;;;4982104;28;19913;-71
2023/02/04 00:16:26;;;;;;;;;;;;;;;;;;4982989;28;19920;-71
2023/02/04 00:18:52;;;;;;;;;;;;;;;;;;4966385;28;20022;-71
2023/02/04 00:21:18;;;;;;;;;;;;;;;;;;4979650;28;19987;-71
2023/02/04 00:23:44;;;;;;;;;;;;;;;;;;4983194;28;20340;-71
2023/02/04 00:26:10;;;;;;;;;;;;;;;;;;4962845;28;19921;-71
2023/02/04 00:28:36;;;;;;;;;;;;;;;;;;4965489;28;19940;-71
2023/02/04 00:31:02;;;;;;;;;;;;;;;;;;4963090;28;19917;-72
2023/02/04 00:33:28;;;;;;;;;;;;;;;;;;4966552;28;20055;-72
2023/02/04 00:35:54;;;;;;;;;;;;;;;;;;4966017;28;20390;-71
2023/02/04 00:38:21;;;;;;;;;;;;;;;;;;4980844;28;19972;-72
2023/02/04 00:40:47;;;;;;;;;;;;;;;;;;4983151;28;19923;-72
2023/02/04 00:43:13;;;;;;;;;;;;;;;;;;4962132;28;19913;-72
2023/02/04 00:45:39;;;;;;;;;;;;;;;;;;4982102;28;20370;-72
2023/02/04 00:48:05;;;;;;;;;;;;;;;;;;4963116;28;19917;-71
2023/02/04 00:50:33;;;;;;;;;;;;;;;;;;4966983;28;19983;-72
2023/02/04 00:53:00;;;;;;;;;;;;;;;;;;4981005;28;19924;-71
2023/02/04 00:55:26;;;;;;;;;;;;;;;;;;4985064;28;19948;-72
2023/02/04 00:57:52;;;;;;;;;;;;;;;;;;4979188;28;20104;-72
2023/02/04 01:00:18;;;;;;;;;;;;;;;;;;4958608;28;21000;-71
2023/02/04 01:02:44;;;;;;;;;;;;;;;;;;4958604;28;19918;-72
2023/02/04 01:05:10;;;;;;;;;;;;;;;;;;4953193;28;19913;-72
2023/02/04 01:07:36;;;;;;;;;;;;;;;;;;4959270;28;19918;-72
2023/02/04 01:10:02;;;;;;;;;;;;;;;;;;4946413;28;20626;-72
2023/02/04 01:12:28;;;;;;;;;;;;;;;;;;4956392;28;19917;-72
2023/02/04 01:14:54;;;;;;;;;;;;;;;;;;4958590;28;19917;-71
2023/02/04 01:17:20;;;;;;;;;;;;;;;;;;4971580;28;20284;-72
2023/02/04 01:19:46;;;;;;;;;;;;;;;;;;4969413;28;19973;-73
2023/02/04 01:22:12;;;;;;;;;;;;;;;;;;4955319;28;19944;-72
2023/02/04 01:24:38;;;;;;;;;;;;;;;;;;4970452;28;20565;-72
2023/02/04 01:27:04;;;;;;;;;;;;;;;;;;4976538;28;19914;-72
2023/02/04 01:29:30;;;;;;;;;;;;;;;;;;4960868;28;20226;-71
2023/02/04 01:31:56;;;;;;;;;;;;;;;;;;4970085;28;19984;-72
2023/02/04 01:34:22;;;;;;;;;;;;;;;;;;4973281;28;19936;-72
2023/02/04 01:36:48;;;;;;;;;;;;;;;;;;4951226;28;19914;-72
2023/02/04 01:39:14;;;;;;;;;;;;;;;;;;4961909;28;20702;-73
2023/02/04 01:41:40;;;;;;;;;;;;;;;;;;4952118;28;19952;-72
2023/02/04 01:44:06;;;;;;;;;;;;;;;;;;4975754;28;19965;-72
2023/02/04 01:46:36;;;;;;;;;;;;;;;;;;4962392;28;19909;-72
2023/02/04 01:49:02;;;;;;;;;;;;;;;;;;4956189;28;19918;-72
2023/02/04 01:51:30;;;;;;;;;;;;;;;;;;4978975;28;19967;-72
2023/02/04 01:53:56;;;;;;;;;;;;;;;;;;4973994;28;19913;-72
2023/02/04 01:56:22;;;;;;;;;;;;;;;;;;4970294;28;20264;-72
2023/02/04 01:58:48;;;;;;;;;;;;;;;;;;4976775;28;19923;-72
2023/02/04 02:01:14;;;;;;;;;;;;;;;;;;4974481;28;19964;-72
2023/02/04 02:03:40;;;;;;;;;;;;;;;;;;4968282;28;19918;-72
2023/02/04 02:06:08;;;;;;;;;;;;;;;;;;4947883;28;20001;-72
2023/02/04 02:08:34;;;;;;;;;;;;;;;;;;4961600;28;20185;-71
2023/02/04 02:11:00;;;;;;;;;;;;;;;;;;4973545;28;19914;-71
2023/02/04 02:13:26;;;;;;;;;;;;;;;;;;4956709;28;20016;-72
2023/02/04 02:15:52;;;;;;;;;;;;;;;;;;4959851;28;20597;-71
2023/02/04 02:18:18;;;;;;;;;;;;;;;;;;4963237;28;20552;-72
2023/02/04 02:20:44;;;;;;;;;;;;;;;;;;4974745;28;19909;-72
2023/02/04 02:23:10;;;;;;;;;;;;;;;;;;4942061;28;20228;-72
2023/02/04 02:25:36;;;;;;;;;;;;;;;;;;4976245;28;19970;-72
2023/02/04 02:28:02;;;;;;;;;;;;;;;;;;4972142;28;20102;-73
2023/02/04 02:30:28;;;;;;;;;;;;;;;;;;4975038;28;19987;-72
2023/02/04 02:32:54;;;;;;;;;;;;;;;;;;4975148;28;20475;-73
2023/02/04 02:35:19;;;;;;;;;;;;;;;;;;4966952;28;19917;-73
2023/02/04 02:37:45;;;;;;;;;;;;;;;;;;4972649;28;20121;-73
2023/02/04 02:40:11;;;;;;;;;;;;;;;;;;4941630;28;19914;-73
2023/02/04 02:42:37;;;;;;;;;;;;;;;;;;4956934;28;19918;-73
2023/02/04 02:45:03;;;;;;;;;;;;;;;;;;4954968;28;19940;-73
2023/02/04 02:47:29;;;;;;;;;;;;;;;;;;4972773;28;20198;-72
2023/02/04 02:49:55;;;;;;;;;;;;;;;;;;4947680;28;20648;-73
2023/02/04 02:52:21;;;;;;;;;;;;;;;;;;4973890;28;19964;-71
2023/02/04 02:54:47;;;;;;;;;;;;;;;;;;4948864;28;19925;-70
2023/02/04 02:57:13;;;;;;;;;;;;;;;;;;4969627;28;20418;-72
2023/02/04 02:59:39;;;;;;;;;;;;;;;;;;4977078;28;20016;-71
2023/02/04 03:02:05;;;;;;;;;;;;;;;;;;4975216;28;20070;-71
2023/02/04 03:04:31;;;;;;;;;;;;;;;;;;4977432;28;20012;-71
2023/02/04 03:06:57;;;;;;;;;;;;;;;;;;4960173;28;19914;-72
2023/02/04 03:09:23;;;;;;;;;;;;;;;;;;4948362;28;20350;-71
2023/02/04 03:11:49;;;;;;;;;;;;;;;;;;4961348;28;19917;-71
2023/02/04 03:14:15;;;;;;;;;;;;;;;;;;4976717;28;19920;-71
2023/02/04 03:16:43;;;;;;;;;;;;;;;;;;4963640;28;19945;-71
2023/02/04 03:19:09;;;;;;;;;;;;;;;;;;4966337;28;19924;-71
2023/02/04 03:21:35;;;;;;;;;;;;;;;;;;4975461;28;19921;-71
2023/02/04 03:24:01;;;;;;;;;;;;;;;;;;4947414;28;19925;-71
2023/02/04 03:26:27;;;;;;;;;;;;;;;;;;4968083;28;19913;-71
2023/02/04 03:28:53;;;;;;;;;;;;;;;;;;4973824;28;20469;-72
2023/02/04 03:31:19;;;;;;;;;;;;;;;;;;4971555;28;19995;-72
2023/02/04 03:33:45;;;;;;;;;;;;;;;;;;4967723;28;19936;-71
2023/02/04 03:36:11;;;;;;;;;;;;;;;;;;4954533;28;20263;-72
2023/02/04 03:38:37;;;;;;;;;;;;;;;;;;4972323;28;19920;-71
2023/02/04 03:41:03;;;;;;;;;;;;;;;;;;4962918;28;20172;-72
2023/02/04 03:43:28;;;;;;;;;;;;;;;;;;4959440;28;20302;-71
2023/02/04 03:45:55;;;;;;;;;;;;;;;;;;4979944;28;20213;-71
2023/02/04 03:48:20;;;;;;;;;;;;;;;;;;4963286;28;20103;-71
2023/02/04 03:50:46;;;;;;;;;;;;;;;;;;4962307;28;19921;-71
2023/02/04 03:53:12;;;;;;;;;;;;;;;;;;4980137;28;19920;-71
2023/02/04 03:55:38;;;;;;;;;;;;;;;;;;4977787;28;20352;-71
2023/02/04 03:58:04;;;;;;;;;;;;;;;;;;4979916;28;20020;-71
2023/02/04 04:00:33;;;;;;;;;;;;;;;;;;4966350;28;19917;-71
2023/02/04 04:02:59;;;;;;;;;;;;;;;;;;4979257;28;19925;-71
2023/02/04 04:05:26;;;;;;;;;;;;;;;;;;4977931;28;19913;-71
2023/02/04 04:07:52;;;;;;;;;;;;;;;;;;4980697;28;19917;-71
2023/02/04 04:10:18;;;;;;;;;;;;;;;;;;4961242;28;19918;-71
2023/02/04 04:12:44;;;;;;;;;;;;;;;;;;4966309;28;20426;-71
2023/02/04 04:15:10;;;;;;;;;;;;;;;;;;4978828;28;19913;-71
2023/02/04 04:17:36;;;;;;;;;;;;;;;;;;4965711;28;19917;-71
2023/02/04 04:20:02;;;;;;;;;;;;;;;;;;4981983;28;19917;-71
2023/02/04 04:22:28;;;;;;;;;;;;;;;;;;4974615;28;20061;-71
2023/02/04 04:24:54;;;;;;;;;;;;;;;;;;4957533;28;19969;-71
2023/02/04 04:27:20;;;;;;;;;;;;;;;;;;4974383;28;19920;-71
2023/02/04 04:29:46;;;;;;;;;;;;;;;;;;4980899;28;19920;-72
2023/02/04 04:32:12;;;;;;;;;;;;;;;;;;4959678;28;19913;-71
2023/02/04 04:34:38;;;;;;;;;;;;;;;;;;4961385;28;20082;-71
2023/02/04 04:37:04;;;;;;;;;;;;;;;;;;4958287;28;20633;-71
2023/02/04 04:39:30;;;;;;;;;;;;;;;;;;4962086;28;19952;-71
2023/02/04 04:41:56;;;;;;;;;;;;;;;;;;4962273;28;20276;-72
2023/02/04 04:44:22;;;;;;;;;;;;;;;;;;4975277;28;19913;-71
2023/02/04 04:46:48;;;;;;;;;;;;;;;;;;4963053;28;19984;-72
2023/02/04 04:49:15;;;;;;;;;;;;;;;;;;4977510;28;20445;-70
2023/02/04 04:51:41;;;;;;;;;;;;;;;;;;4981616;28;19952;-72
2023/02/04 04:54:07;;;;;;;;;;;;;;;;;;4960266;28;19961;-72
2023/02/04 04:56:33;;;;;;;;;;;;;;;;;;4962722;28;19972;-72
2023/02/04 04:58:59;;;;;;;;;;;;;;;;;;4959331;28;19921;-72
2023/02/04 05:01:25;;;;;;;;;;;;;;;;;;4960264;28;19918;-73
2023/02/04 05:03:51;;;;;;;;;;;;;;;;;;4962405;28;20284;-71
2023/02/04 05:06:17;;;;;;;;;;;;;;;;;;4940443;28;20340;-71
2023/02/04 05:08:43;;;;;;;;;;;;;;;;;;4944095;28;19920;-71
2023/02/04 05:11:09;;;;;;;;;;;;;;;;;;4948625;28;20418;-71
2023/02/04 05:13:35;;;;;;;;;;;;;;;;;;4957210;28;19910;-70
2023/02/04 05:16:01;;;;;;;;;;;;;;;;;;4957750;28;20644;-71
2023/02/04 05:18:27;;;;;;;;;;;;;;;;;;4956911;28;19945;-70
2023/02/04 05:20:53;;;;;;;;;;;;;;;;;;4942979;28;20422;-73
2023/02/04 05:23:19;;;;;;;;;;;;;;;;;;4957605;28;20625;-70
2023/02/04 05:25:45;;;;;;;;;;;;;;;;;;4962149;28;20067;-72
2023/02/04 05:28:11;;;;;;;;;;;;;;;;;;4954372;28;20603;-70
2023/02/04 05:30:37;;;;;;;;;;;;;;;;;;4943909;28;19925;-71
2023/02/04 05:33:02;;;;;;;;;;;;;;;;;;4941234;28;20001;-71
2023/02/04 05:35:28;;;;;;;;;;;;;;;;;;4962117;28;19921;-71
2023/02/04 05:37:54;;;;;;;;;;;;;;;;;;4958842;28;20087;-71
2023/02/04 05:40:20;;;;;;;;;;;;;;;;;;4953742;28;19913;-71
2023/02/04 05:42:46;;;;;;;;;;;;;;;;;;4959690;28;19929;-70
2023/02/04 05:45:12;;;;;;;;;;;;;;;;;;4958016;28;19960;-71
2023/02/04 05:47:38;;;;;;;;;;;;;;;;;;4959815;28;19953;-71
2023/02/04 05:50:05;;;;;;;;;;;;;;;;;;4957439;28;20363;-70
2023/02/04 05:52:31;;;;;;;;;;;;;;;;;;4943025;28;20258;-70
2023/02/04 05:54:57;;;;;;;;;;;;;;;;;;4963130;28;20702;-70
2023/02/04 05:57:23;;;;;;;;;;;;;;;;;;4960498;28;20225;-71
2023/02/04 05:59:49;;;;;;;;;;;;;;;;;;4975046;28;19913;-70
2023/02/04 06:02:15;;;;;;;;;;;;;;;;;;4958623;28;19921;-70
2023/02/04 06:04:41;;;;;;;;;;;;;;;;;;4959953;28;20000;-71
2023/02/04 06:07:06;;;;;;;;;;;;;;;;;;4973810;28;19917;-71
2023/02/04 06:09:32;;;;;;;;;;;;;;;;;;4977170;28;19948;-71
2023/02/04 06:11:58;;;;;;;;;;;;;;;;;;4978277;28;20128;-72
2023/02/04 06:14:24;;;;;;;;;;;;;;;;;;4962815;28;19917;-72
2023/02/04 06:16:50;;;;;;;;;;;;;;;;;;4981774;28;19920;-72
2023/02/04 06:19:16;;;;;;;;;;;;;;;;;;4975345;28;19968;-72
2023/02/04 06:21:42;;;;;;;;;;;;;;;;;;4978466;28;19917;-72
2023/02/04 06:24:09;;;;;;;;;;;;;;;;;;4976103;28;19914;-72
2023/02/04 06:26:35;;;;;;;;;;;;;;;;;;4978656;28;20102;-72
2023/02/04 06:29:00;;;;;;;;;;;;;;;;;;4958120;28;20052;-71
2023/02/04 06:31:26;;;;;;;;;;;;;;;;;;4960230;28;20384;-72
2023/02/04 06:33:52;;;;;;;;;;;;;;;;;;4979171;28;20291;-72
2023/02/04 06:36:18;;;;;;;;;;;;;;;;;;4974064;28;19928;-71
2023/02/04 06:38:44;;;;;;;;;;;;;;;;;;4978251;28;19913;-71
2023/02/04 06:41:10;;;;;;;;;;;;;;;;;;4973117;28;20338;-71
2023/02/04 06:43:36;;;;;;;;;;;;;;;;;;4976893;28;19957;-71
2023/02/04 06:46:02;;;;;;;;;;;;;;;;;;4960874;28;19921;-71
2023/02/04 06:48:28;;;;;;;;;;;;;;;;;;4977910;28;19917;-71
2023/02/04 06:50:54;;;;;;;;;;;;;;;;;;4977583;28;20442;-71
2023/02/04 06:53:20;;;;;;;;;;;;;;;;;;4973065;28;20236;-71
2023/02/04 06:55:46;;;;;;;;;;;;;;;;;;4976486;28;20254;-71
2023/02/04 06:58:12;;;;;;;;;;;;;;;;;;4955752;28;20013;-71
2023/02/04 07:00:38;;;;;;;;;;;;;;;;;;4963192;28;20049;-71
2023/02/04 07:03:06;;;;;;;;;;;;;;;;;;4974117;28;19917;-71
2023/02/04 07:05:32;;;;;;;;;;;;;;;;;;4962392;28;19924;-71
2023/02/04 07:07:58;;;;;;;;;;;;;;;;;;4963467;28;19953;-71
2023/02/04 07:10:24;;;;;;;;;;;;;;;;;;4979212;28;19918;-71
2023/02/04 07:12:50;;;;;;;;;;;;;;;;;;4979746;28;19917;-72
2023/02/04 07:15:16;;;;;;;;;;;;;;;;;;4978227;28;19917;-72
2023/02/04 07:17:42;;;;;;;;;;;;;;;;;;4961291;28;20020;-72
2023/02/04 07:20:08;;;;;;;;;;;;;;;;;;4962898;28;20049;-71
2023/02/04 07:22:34;;;;;;;;;;;;;;;;;;4979595;28;20672;-71
2023/02/04 07:25:00;;;;;;;;;;;;;;;;;;4962079;28;20417;-72
2023/02/04 07:27:26;;;;;;;;;;;;;;;;;;4981884;28;19914;-72
2023/02/04 07:29:52;;;;;;;;;;;;;;;;;;4964654;28;19917;-72
2023/02/04 07:32:18;;;;;;;;;;;;;;;;;;4962725;28;20179;-72
2023/02/04 07:34:44;;;;;;;;;;;;;;;;;;4979325;28;20034;-71
2023/02/04 07:37:10;;;;;;;;;;;;;;;;;;4975301;28;20066;-72
2023/02/04 07:39:36;;;;;;;;;;;;;;;;;;4975295;28;20214;-71
2023/02/04 07:42:01;;;;;;;;;;;;;;;;;;4974140;28;21030;-71
2023/02/04 07:44:28;;;;;;;;;;;;;;;;;;4978237;28;20295;-71
2023/02/04 07:46:54;;;;;;;;;;;;;;;;;;4978352;28;19936;-70
2023/02/04 07:49:19;;;;;;;;;;;;;;;;;;4958264;28;19921;-73
2023/02/04 07:51:45;;;;;;;;;;;;;;;;;;4976422;28;19917;-70
2023/02/04 07:54:11;;;;;;;;;;;;;;;;;;4975507;28;20403;-70
2023/02/04 07:56:37;;;;;;;;;;;;;;;;;;4962125;28;20409;-72
2023/02/04 07:59:03;;;;;;;;;;;;;;;;;;4976944;28;19913;-72
2023/02/04 08:01:29;;;;;;;;;;;;;;;;;;4960837;28;20348;-73
2023/02/04 08:03:55;;;;;;;;;;;;;;;;;;4957282;28;20465;-72
2023/02/04 08:06:21;;;;;;;;;;;;;;;;;;4974822;28;19913;-72
2023/02/04 08:08:47;;;;;;;;;;;;;;;;;;4961625;28;20087;-72
2023/02/04 08:11:13;;;;;;;;;;;;;;;;;;4960844;28;19913;-72
2023/02/04 08:13:39;;;;;;;;;;;;;;;;;;4978304;28;20305;-71
2023/02/04 08:16:05;;;;;;;;;;;;;;;;;;4972749;28;19917;-71
2023/02/04 08:18:31;;;;;;;;;;;;;;;;;;4961714;28;19928;-70
2023/02/04 08:20:59;;;;;;;;;;;;;;;;;;4976591;28;19940;-70
2023/02/04 08:23:25;;;;;;;;;;;;;;;;;;4962483;28;20644;-71
2023/02/04 08:25:51;;;;;;;;;;;;;;;;;;4978308;28;19914;-71
2023/02/04 08:28:17;;;;;;;;;;;;;;;;;;4975031;28;20394;-71
2023/02/04 08:30:43;;;;;;;;;;;;;;;;;;4976467;28;19920;-71
2023/02/04 08:33:09;;;;;;;;;;;;;;;;;;4956635;28;19918;-71
2023/02/04 08:35:35;;;;;;;;;;;;;;;;;;4976457;28;20466;-70
2023/02/04 08:38:01;;;;;;;;;;;;;;;;;;4975153;28;19944;-70
2023/02/04 08:40:27;;;;;;;;;;;;;;;;;;4976708;28;19914;-70
2023/02/04 08:42:53;;;;;;;;;;;;;;;;;;4963913;28;20254;-70
2023/02/04 08:45:20;;;;;;;;;;;;;;;;;;4976445;28;20743;-70
2023/02/04 08:47:46;;;;;;;;;;;;;;;;;;4962975;28;19944;-71
2023/02/04 08:50:11;;;;;;;;;;;;;;;;;;4959218;28;19967;-70
2023/02/04 08:52:38;;;;;;;;;;;;;;;;;;4975837;28;19914;-71
2023/02/04 08:55:04;;;;;;;;;;;;;;;;;;4975885;28;19968;-71
2023/02/04 08:57:30;;;;;;;;;;;;;;;;;;4974134;28;19925;-70
2023/02/04 08:59:55;;;;;;;;;;;;;;;;;;4974962;28;19923;-70
2023/02/04 09:02:21;;;;;;;;;;;;;;;;;;4973050;28;19917;-71
2023/02/04 09:04:47;;;;;;;;;;;;;;;;;;4978406;28;20127;-70
2023/02/04 09:07:13;;;;;;;;;;;;;;;;;;4960230;28;20463;-71
2023/02/04 09:09:39;;;;;;;;;;;;;;;;;;4963524;28;20280;-70
2023/02/04 09:12:05;;;;;;;;;;;;;;;;;;4973228;28;19920;-71
2023/02/04 09:14:31;;;;;;;;;;;;;;;;;;4964176;28;20020;-70
2023/02/04 09:16:57;;;;;;;;;;;;;;;;;;4976675;28;19991;-71
2023/02/04 09:19:24;;;;;;;;;;;;;;;;;;4962711;28;19917;-72
2023/02/04 09:21:50;;;;;;;;;;;;;;;;;;4962890;28;19964;-72
2023/02/04 09:24:18;;;;;;;;;;;;;;;;;;4960716;28;21711;-72
2023/02/04 09:26:44;;;;;;;;;;;;;;;;;;4961284;28;19918;-72
2023/02/04 09:29:10;;;;;;;;;;;;;;;;;;4958361;28;19920;-72
2023/02/04 09:31:36;;;;;;;;;;;;;;;;;;4972219;28;19922;-73
2023/02/04 09:34:02;;;;;;;;;;;;;;;;;;4971678;28;19913;-72
2023/02/04 09:36:31;;;;;;;;;;;;;;;;;;4973340;28;20162;-72
2023/02/04 09:38:57;;;;;;;;;;;;;;;;;;4975867;28;19991;-72
2023/02/04 09:41:23;;;;;;;;;;;;;;;;;;4974785;28;20020;-71
2023/02/04 09:43:50;;;;;;;;;;;;;;;;;;4962286;28;19920;-71
2023/02/04 09:46:16;;;;;;;;;;;;;;;;;;4973039;28;19914;-71
2023/02/04 09:48:42;;;;;;;;;;;;;;;;;;4972070;28;20011;-71
2023/02/04 09:51:08;;;;;;;;;;;;;;;;;;4976934;28;20275;-71
2023/02/04 09:53:34;;;;;;;;;;;;;;;;;;4961500;28;19976;-72
2023/02/04 09:56:00;;;;;;;;;;;;;;;;;;4972726;28;19913;-72
2023/02/04 09:58:26;;;;;;;;;;;;;;;;;;4966397;28;20271;-73
2023/02/04 10:00:51;;;;;;;;;;;;;;;;;;4974793;28;19921;-72
2023/02/04 10:03:18;;;;;;;;;;;;;;;;;;4972101;28;19928;-71
2023/02/04 10:05:44;;;;;;;;;;;;;;;;;;4958794;28;19914;-71
2023/02/04 10:08:10;;;;;;;;;;;;;;;;;;4969092;28;19972;-72
2023/02/04 10:10:36;;;;;;;;;;;;;;;;;;4969178;28;19920;-72
2023/02/04 10:13:02;;;;;;;;;;;;;;;;;;4955266;28;19913;-73
2023/02/04 10:15:28;;;;;;;;;;;;;;;;;;4973820;28;20225;-72
2023/02/04 10:17:54;;;;;;;;;;;;;;;;;;4973172;28;19920;-71
2023/02/04 10:20:20;;;;;;;;;;;;;;;;;;4969268;28;19963;-71
2023/02/04 10:22:46;;;;;;;;;;;;;;;;;;4961877;28;19962;-71
2023/02/04 10:25:12;;;;;;;;;;;;;;;;;;4968638;28;19922;-71
2023/02/04 10:27:38;;;;;;;;;;;;;;;;;;4961241;28;19919;-71
2023/02/04 10:30:04;;;;;;;;;;;;;;;;;;4959499;28;20753;-71
2023/02/04 10:32:30;;;;;;;;;;;;;;;;;;4958745;28;19917;-71
2023/02/04 10:34:56;;;;;;;;;;;;;;;;;;4961559;28;20355;-71
2023/02/04 10:37:22;;;;;;;;;;;;;;;;;;4975161;28;20446;-71
2023/02/04 10:39:48;;;;;;;;;;;;;;;;;;4978576;28;20597;-71
2023/02/04 10:42:14;;;;;;;;;;;;;;;;;;4973626;28;19924;-72
2023/02/04 10:44:40;;;;;;;;;;;;;;;;;;4976829;28;19914;-71
2023/02/04 10:47:08;;;;;;;;;;;;;;;;;;4962598;28;20293;-73
2023/02/04 10:49:35;;;;;;;;;;;;;;;;;;4977147;28;19925;-71
2023/02/04 10:52:01;;;;;;;;;;;;;;;;;;4977166;28;20283;-73
2023/02/04 10:54:30;;;;;;;;;;;;;;;;;;4978910;28;19920;-72
2023/02/04 10:56:56;;;;;;;;;;;;;;;;;;4976124;28;20001;-72
2023/02/04 10:59:22;;;;;;;;;;;;;;;;;;4961667;28;19917;-72
2023/02/04 11:01:48;;;;;;;;;;;;;;;;;;4978342;28;20219;-71
2023/02/04 11:04:14;;;;;;;;;;;;;;;;;;4962549;28;19964;-72
2023/02/04 11:06:40;;;;;;;;;;;;;;;;;;4965527;28;19913;-72
2023/02/04 11:09:06;;;;;;;;;;;;;;;;;;4961759;28;19913;-72
2023/02/04 11:11:32;;;;;;;;;;;;;;;;;;4976827;28;20095;-72
2023/02/04 11:13:58;;;;;;;;;;;;;;;;;;4966392;28;19968;-74
2023/02/04 11:16:24;;;;;;;;;;;;;;;;;;4960630;28;20797;-72
2023/02/04 11:18:50;;;;;;;;;;;;;;;;;;4980214;28;20027;-72
2023/02/04 11:21:16;;;;;;;;;;;;;;;;;;4974976;28;20416;-72
2023/02/04 11:23:42;;;;;;;;;;;;;;;;;;4963896;28;20390;-72
2023/02/04 11:26:08;;;;;;;;;;;;;;;;;;4971140;28;19914;-72
2023/02/04 11:28:34;;;;;;;;;;;;;;;;;;4963123;28;20498;-72
2023/02/04 11:31:00;;;;;;;;;;;;;;;;;;4976963;28;20326;-71
2023/02/04 11:33:26;;;;;;;;;;;;;;;;;;4979956;28;19914;-72
2023/02/04 11:35:52;;;;;;;;;;;;;;;;;;4964156;28;19913;-72
2023/02/04 11:38:18;;;;;;;;;;;;;;;;;;4975219;28;19955;-70
2023/02/04 11:40:44;;;;;;;;;;;;;;;;;;4972691;28;19914;-70
2023/02/04 11:43:10;;;;;;;;;;;;;;;;;;4977099;28;19917;-70
2023/02/04 11:45:36;;;;;;;;;;;;;;;;;;4963597;28;20576;-66
2023/02/04 11:48:02;;;;;;;;;;;;;;;;;;4959297;28;20225;-66
2023/02/04 11:50:29;;;;;;;;;;;;;;;;;;4963137;28;20462;-70
2023/02/04 11:52:55;;;;;;;;;;;;;;;;;;4956893;28;19922;-69
2023/02/04 11:55:21;;;;;;;;;;;;;;;;;;4976693;28;21429;-69
2023/02/04 11:57:49;;;;;;;;;;;;;;;;;;4976649;28;20313;-70
2023/02/04 12:00:15;;;;;;;;;;;;;;;;;;4973241;28;19920;-70
2023/02/04 12:02:42;;;;;;;;;;;;;;;;;;4963049;28;19917;-70
2023/02/04 12:05:07;;;;;;;;;;;;;;;;;;4975412;28;19995;-70
2023/02/04 12:07:33;;;;;;;;;;;;;;;;;;4977637;28;19913;-70
2023/02/04 12:09:59;;;;;;;;;;;;;;;;;;4975551;28;20335;-63
2023/02/04 12:12:25;;;;;;;;;;;;;;;;;;4979139;28;20808;-68
2023/02/04 12:14:51;;;;;;;;;;;;;;;;;;4979235;28;19913;-69
2023/02/04 12:17:17;;;;;;;;;;;;;;;;;;4976339;28;20052;-69
2023/02/04 12:19:43;;;;;;;;;;;;;;;;;;4978576;28;19925;-69
2023/02/04 12:22:09;;;;;;;;;;;;;;;;;;4975304;28;20717;-69
2023/02/04 12:24:35;;;;;;;;;;;;;;;;;;4963344;28;20481;-69
2023/02/04 12:27:01;;;;;;;;;;;;;;;;;;4977260;28;19921;-70
2023/02/04 12:29:27;;;;;;;;;;;;;;;;;;4976954;28;20364;-69
2023/02/04 12:31:53;;;;;;;;;;;;;;;;;;4978496;28;20203;-69
2023/02/04 12:34:20;;;;;;;;;;;;;;;;;;4973020;28;20008;-70
2023/02/04 12:36:46;;;;;;;;;;;;;;;;;;4964451;28;21129;-70
2023/02/04 12:39:12;;;;;;;;;;;;;;;;;;4974090;28;20249;-70
2023/02/04 12:41:38;;;;;;;;;;;;;;;;;;4976992;28;20645;-70
2023/02/04 12:44:04;;;;;;;;;;;;;;;;;;4974126;28;19921;-70
2023/02/04 12:46:30;;;;;;;;;;;;;;;;;;4976050;28;19976;-70
2023/02/04 12:48:56;;;;;;;;;;;;;;;;;;4979641;28;19941;-69
2023/02/04 12:51:22;;;;;;;;;;;;;;;;;;4975847;28;19917;-71
2023/02/04 12:53:48;;;;;;;;;;;;;;;;;;4961631;28;20345;-70
2023/02/04 12:56:14;;;;;;;;;;;;;;;;;;4961132;28;20034;-69
2023/02/04 12:58:40;;;;;;;;;;;;;;;;;;4958739;28;20438;-70
2023/02/04 13:01:06;;;;;;;;;;;;;;;;;;4958794;28;20284;-69
2023/02/04 13:03:32;;;;;;;;;;;;;;;;;;4959679;28;19914;-69
2023/02/04 13:05:58;;;;;;;;;;;;;;;;;;4960443;28;19918;-70
2023/02/04 13:08:24;;;;;;;;;;;;;;;;;;4973849;28;20029;-70
2023/02/04 13:10:50;;;;;;;;;;;;;;;;;;4965731;28;20902;-70
2023/02/04 13:13:17;;;;;;;;;;;;;;;;;;4954554;28;19914;-71
2023/02/04 13:15:43;;;;;;;;;;;;;;;;;;4974578;28;20019;-70
2023/02/04 13:18:09;;;;;;;;;;;;;;;;;;4970065;28;20364;-70
2023/02/04 13:20:35;;;;;;;;;;;;;;;;;;4967664;28;20386;-69
2023/02/04 13:23:01;;;;;;;;;;;;;;;;;;4962242;28;20387;-70
2023/02/04 13:25:27;;;;;;;;;;;;;;;;;;4974825;28;19913;-70
2023/02/04 13:27:53;;;;;;;;;;;;;;;;;;4955394;28;20052;-70
2023/02/04 13:30:18;;;;;;;;;;;;;;;;;;4973789;28;20418;-69
2023/02/04 13:32:44;;;;;;;;;;;;;;;;;;4959136;28;20705;-70
2023/02/04 13:35:10;;;;;;;;;;;;;;;;;;4953375;28;19914;-69
2023/02/04 13:37:37;;;;;;;;;;;;;;;;;;4964238;28;19910;-70
2023/02/04 13:40:03;;;;;;;;;;;;;;;;;;4958350;28;19914;-70
2023/02/04 13:42:29;;;;;;;;;;;;;;;;;;4978260;28;20199;-70
2023/02/04 13:44:55;;;;;;;;;;;;;;;;;;4977220;28;20281;-69
2023/02/04 13:47:21;;;;;;;;;;;;;;;;;;4974773;28;20485;-69
2023/02/04 13:49:47;;;;;;;;;;;;;;;;;;4969293;28;20384;-70
2023/02/04 13:52:13;;;;;;;;;;;;;;;;;;4963445;28;19948;-69
2023/02/04 13:54:39;;;;;;;;;;;;;;;;;;4957444;28;20052;-69
2023/02/04 13:57:05;;;;;;;;;;;;;;;;;;4971197;28;20580;-69
2023/02/04 13:59:31;;;;;;;;;;;;;;;;;;4973663;28;19925;-69
2023/02/04 14:01:57;;;;;;;;;;;;;;;;;;4968494;28;19944;-70
2023/02/04 14:04:23;;;;;;;;;;;;;;;;;;4968187;28;19948;-70
2023/02/04 14:06:49;;;;;;;;;;;;;;;;;;4958986;28;20024;-69
2023/02/04 14:09:15;;;;;;;;;;;;;;;;;;4970334;28;19984;-69
2023/02/04 14:11:41;;;;;;;;;;;;;;;;;;4968627;28;20316;-69
2023/02/04 14:14:10;;;;;;;;;;;;;;;;;;4958433;28;20751;-69
2023/02/04 14:16:36;;;;;;;;;;;;;;;;;;4961776;28;20039;-70
2023/02/04 14:19:02;;;;;;;;;;;;;;;;;;4958690;28;19976;-69
2023/02/04 14:21:28;;;;;;;;;;;;;;;;;;4966189;28;19926;-70
2023/02/04 14:23:54;;;;;;;;;;;;;;;;;;4958807;28;20268;-69
2023/02/04 14:26:20;;;;;;;;;;;;;;;;;;4958419;28;20043;-69
2023/02/04 14:28:46;;;;;;;;;;;;;;;;;;4979089;28;20344;-70
2023/02/04 14:31:12;;;;;;;;;;;;;;;;;;4961027;28;19917;-69
2023/02/04 14:33:38;;;;;;;;;;;;;;;;;;4970316;28;19913;-70
2023/02/04 14:36:04;;;;;;;;;;;;;;;;;;4965927;28;19917;-69
2023/02/04 14:38:32;;;;;;;;;;;;;;;;;;4973614;28;19918;-69
2023/02/04 14:40:58;;;;;;;;;;;;;;;;;;4968208;28;20703;-69
2023/02/04 14:43:24;;;;;;;;;;;;;;;;;;4954479;28;19921;-70
2023/02/04 14:45:50;;;;;;;;;;;;;;;;;;4960267;28;20342;-69
2023/02/04 14:48:16;;;;;;;;;;;;;;;;;;4957514;28;19940;-70
2023/02/04 14:50:42;;;;;;;;;;;;;;;;;;4970562;28;19969;-70
2023/02/04 14:53:08;;;;;;;;;;;;;;;;;;4958533;28;20324;-70
2023/02/04 14:55:34;;;;;;;;;;;;;;;;;;4961917;28;20052;-70
2023/02/04 14:58:00;;;;;;;;;;;;;;;;;;4970467;28;19921;-70
2023/02/04 15:00:26;;;;;;;;;;;;;;;;;;4962844;28;19921;-70
2023/02/04 15:02:52;;;;;;;;;;;;;;;;;;4973110;28;19921;-70
2023/02/04 15:05:18;;;;;;;;;;;;;;;;;;4973418;28;21205;-70
2023/02/04 15:07:44;;;;;;;;;;;;;;;;;;4982931;28;20771;-70
2023/02/04 15:10:10;;;;;;;;;;;;;;;;;;4957376;28;20292;-70
2023/02/04 15:12:36;;;;;;;;;;;;;;;;;;4976658;28;19917;-70
2023/02/04 15:15:02;;;;;;;;;;;;;;;;;;4969963;28;19981;-70
2023/02/04 15:17:28;;;;;;;;;;;;;;;;;;4961572;28;20239;-70
2023/02/04 15:19:53;;;;;;;;;;;;;;;;;;4975529;28;19921;-70
2023/02/04 15:22:19;;;;;;;;;;;;;;;;;;4957358;28;19925;-70
2023/02/04 15:24:47;;;;;;;;;;;;;;;;;;4976118;28;19928;-70
2023/02/04 15:27:13;;;;;;;;;;;;;;;;;;4975230;28;20286;-69
2023/02/04 15:29:39;;;;;;;;;;;;;;;;;;4961574;28;20040;-69
2023/02/04 15:32:05;;;;;;;;;;;;;;;;;;4970473;28;20493;-75
2023/02/04 15:34:30;;;;;;;;;;;;;;;;;;4978248;28;19921;-75
2023/02/04 15:36:56;;;;;;;;;;;;;;;;;;4966353;28;20399;-75
2023/02/04 15:39:22;;;;;;;;;;;;;;;;;;4975043;28;19917;-74
2023/02/04 15:41:48;;;;;;;;;;;;;;;;;;4958673;28;19918;-73
2023/02/04 15:44:14;;;;;;;;;;;;;;;;;;4978449;28;19917;-75
2023/02/04 15:46:40;;;;;;;;;;;;;;;;;;4980516;28;19925;-75
2023/02/04 15:49:07;;;;;;;;;;;;;;;;;;4975733;28;19917;-74
2023/02/04 15:51:33;;;;;;;;;;;;;;;;;;4978479;28;20207;-74
2023/02/04 15:53:59;;;;;;;;;;;;;;;;;;4970865;28;21015;-73
2023/02/04 15:56:25;;;;;;;;;;;;;;;;;;4965757;28;20225;-73
2023/02/04 15:58:51;;;;;;;;;;;;;;;;;;4982550;28;19960;-73
2023/02/04 16:01:18;;;;;;;;;;;;;;;;;;4963552;28;19916;-73
2023/02/04 16:03:46;;;;;;;;;;;;;;;;;;4963005;28;19921;-75
2023/02/04 16:06:12;;;;;;;;;;;;;;;;;;4961078;28;20350;-73
2023/02/04 16:08:38;;;;;;;;;;;;;;;;;;4966025;28;19914;-73
2023/02/04 16:11:04;;;;;;;;;;;;;;;;;;4964851;28;19920;-74
2023/02/04 16:13:30;;;;;;;;;;;;;;;;;;4966418;28;19956;-73
2023/02/04 16:15:56;;;;;;;;;;;;;;;;;;4979534;28;19979;-73
2023/02/04 16:18:23;;;;;;;;;;;;;;;;;;4978234;28;19918;-73
2023/02/04 16:20:49;;;;;;;;;;;;;;;;;;4965511;28;20335;-73
2023/02/04 16:23:15;;;;;;;;;;;;;;;;;;4982865;28;19980;-73
2023/02/04 16:25:41;;;;;;;;;;;;;;;;;;4966801;28;20484;-74
2023/02/04 16:28:07;;;;;;;;;;;;;;;;;;4977406;28;19921;-74
2023/02/04 16:30:33;;;;;;;;;;;;;;;;;;4981420;28;19909;-73
2023/02/04 16:32:59;;;;;;;;;;;;;;;;;;4977638;28;20635;-73
2023/02/04 16:35:26;;;;;;;;;;;;;;;;;;4966573;28;20583;-73
2023/02/04 16:37:52;;;;;;;;;;;;;;;;;;4964397;28;20294;-73